createdAt,value
2022-08-31T05:38:05.181Z,17.60
2022-08-31T05:44:17.769Z,17.30
2022-08-31T05:47:10.797Z,17.70
2022-08-31T05:50:18.950Z,17.60
2022-08-31T05:53:35.874Z,17.70
2022-08-31T05:56:52.062Z,17.70
2022-08-31T06:03:52.150Z,17.70
2022-08-31T06:06:53.033Z,17.60
2022-08-31T06:13:53.467Z,17.80
2022-08-31T06:17:24.643Z,17.70
2022-08-31T06:24:18.834Z,18.00
2022-08-31T06:27:40.847Z,17.70
2022-08-31T06:30:58.866Z,17.70
2022-08-31T06:34:13.187Z,18.00
2022-08-31T06:37:18.885Z,17.90
2022-08-31T06:40:17.291Z,17.90
2022-08-31T06:43:06.355Z,18.00
2022-08-31T06:45:59.718Z,18.20
2022-08-31T06:49:08.679Z,18.20
2022-08-31T06:52:17.584Z,18.00
2022-08-31T06:55:17.092Z,18.10
2022-08-31T06:58:04.779Z,18.20
2022-08-31T07:00:56.276Z,18.20
2022-08-31T07:04:15.316Z,18.10
2022-08-31T07:07:10.150Z,18.10
2022-08-31T07:09:59.020Z,18.20
2022-08-31T07:12:54.300Z,18.40
2022-08-31T07:18:57.303Z,18.60
2022-08-31T07:21:50.928Z,18.70
2022-08-31T07:24:44.958Z,18.70
2022-08-31T07:27:43.964Z,18.80
2022-08-31T07:30:42.495Z,18.80
2022-08-31T07:34:08.188Z,18.80
2022-08-31T07:37:27.921Z,18.70
2022-08-31T07:40:43.662Z,18.70
2022-08-31T08:52:23.623Z,20.10
2022-08-31T08:55:26.054Z,19.80
2022-08-31T08:58:23.295Z,20.30
2022-08-31T09:01:36.446Z,20.40
2022-08-31T09:04:46.149Z,20.40
2022-08-31T09:07:56.912Z,20.50
2022-08-31T09:11:31.995Z,20.40
2022-08-31T09:15:22.676Z,20.60
2022-08-31T09:18:34.050Z,20.30
2022-08-31T09:21:38.626Z,20.40
2022-08-31T09:24:38.731Z,20.50
2022-08-31T09:28:05.674Z,20.70
2022-08-31T09:30:53.766Z,20.40
2022-08-31T09:34:04.971Z,20.40
2022-08-31T09:41:27.510Z,21.00
2022-08-31T09:44:27.480Z,21.00
2022-08-31T09:48:01.086Z,21.40
2022-08-31T09:51:12.435Z,21.10
2022-08-31T09:54:43.243Z,20.90
2022-08-31T09:58:06.793Z,21.20
2022-08-31T10:04:38.031Z,21.00
2022-08-31T10:08:11.404Z,21.30
2022-08-31T10:12:10.729Z,21.60
2022-08-31T10:15:30.116Z,21.60
2022-08-31T10:19:11.174Z,21.90
2022-08-31T10:22:43.253Z,21.60
2022-08-31T10:26:35.199Z,21.50
2022-08-31T10:30:21.351Z,21.90
2022-08-31T10:33:38.634Z,22.00
2022-08-31T10:37:02.407Z,21.70
2022-08-31T10:40:01.521Z,21.80
2022-08-31T10:43:20.542Z,21.50
2022-08-31T10:46:30.325Z,21.60
2022-08-31T10:49:24.970Z,22.00
2022-08-31T10:57:21.534Z,22.00
2022-08-31T11:02:06.086Z,22.10
2022-08-31T11:04:35.080Z,22.50
2022-08-31T11:07:59.855Z,22.80
2022-08-31T11:11:56.154Z,22.80
2022-08-31T11:15:06.639Z,22.90
2022-08-31T11:18:47.069Z,22.40
2022-08-31T11:25:45.514Z,22.80
2022-08-31T11:29:15.637Z,22.60
2022-08-31T11:32:53.334Z,22.90
2022-08-31T11:36:06.665Z,23.20
2022-08-31T11:39:10.682Z,22.70
2022-08-31T11:42:18.385Z,23.30
2022-08-31T11:45:43.804Z,23.10
2022-08-31T11:48:58.248Z,23.50
2022-08-31T11:51:48.449Z,23.70
2022-08-31T11:58:28.549Z,23.80
2022-08-31T12:02:20.899Z,23.30
2022-08-31T12:05:22.593Z,23.40
2022-08-31T12:11:56.176Z,23.60
2022-08-31T12:25:54.101Z,23.40
2022-08-31T12:29:22.714Z,23.60
2022-08-31T12:32:50.814Z,24.20
2022-08-31T12:36:02.228Z,23.90
2022-08-31T12:39:32.108Z,24.10
2022-08-31T12:42:31.002Z,24.20
2022-08-31T12:46:32.895Z,24.10
2022-08-31T12:49:55.407Z,24.10
2022-08-31T12:53:12.669Z,24.60
2022-08-31T12:56:22.308Z,24.40
2022-08-31T13:00:01.200Z,24.10
2022-08-31T13:03:18.222Z,24.20
2022-08-31T13:06:20.710Z,24.50
2022-08-31T13:09:50.770Z,24.40
2022-08-31T13:12:49.916Z,24.30
2022-08-31T13:16:27.920Z,24.30
2022-08-31T13:23:14.781Z,24.40
2022-08-31T13:26:26.277Z,24.40
2022-08-31T13:29:24.378Z,24.30
2022-08-31T13:32:43.139Z,24.60
2022-08-31T13:35:34.192Z,24.50
2022-08-31T13:39:16.852Z,24.60
2022-08-31T13:46:02.890Z,24.50
2022-08-31T13:49:40.592Z,24.50
2022-08-31T13:52:45.178Z,24.80
2022-08-31T13:56:07.965Z,25.00
2022-08-31T13:59:27.944Z,24.80
2022-08-31T14:05:42.914Z,24.80
2022-08-31T14:12:09.388Z,25.00
2022-08-31T14:15:10.670Z,24.90
2022-08-31T14:18:25.004Z,24.90
2022-08-31T14:21:25.107Z,24.50
2022-08-31T14:24:41.652Z,25.10
2022-08-31T14:27:40.790Z,25.30
2022-08-31T14:36:25.450Z,24.90
2022-08-31T14:38:29.005Z,25.20
2022-08-31T14:46:11.276Z,25.40
2022-08-31T14:49:17.436Z,24.70
2022-08-31T14:55:56.253Z,24.70
2022-08-31T15:00:04.281Z,24.90
2022-08-31T15:03:45.450Z,24.90
2022-08-31T15:06:44.640Z,24.80
2022-08-31T15:09:46.890Z,24.20
2022-08-31T15:13:13.410Z,24.60
2022-08-31T15:16:15.355Z,24.90
2022-08-31T15:19:21.166Z,24.40
2022-08-31T15:22:46.492Z,24.60
2022-08-31T15:26:07.841Z,24.80
2022-08-31T15:29:02.764Z,24.70
2022-08-31T15:32:22.435Z,24.50
2022-08-31T15:35:30.636Z,24.80
2022-08-31T15:38:31.421Z,24.70
2022-08-31T15:41:54.705Z,24.40
2022-08-31T15:44:50.671Z,24.30
2022-08-31T15:48:04.103Z,24.30
2022-08-31T15:51:01.574Z,24.10
2022-08-31T15:54:21.661Z,24.20
2022-08-31T15:57:29.250Z,24.40
2022-08-31T16:00:32.923Z,24.00
2022-08-31T16:03:35.634Z,24.10
2022-08-31T16:06:39.180Z,23.90
2022-08-31T16:09:38.876Z,23.90
2022-08-31T16:12:36.662Z,23.90
2022-08-31T16:15:37.679Z,24.20
2022-08-31T16:36:34.129Z,23.80
2022-08-31T16:48:29.939Z,23.30
2022-08-31T16:51:02.600Z,23.30
2022-08-31T16:54:07.149Z,23.20
2022-08-31T16:57:32.198Z,23.00
2022-08-31T17:00:55.909Z,23.00
2022-08-31T17:04:21.556Z,23.10
2022-08-31T17:08:00.895Z,23.10
2022-08-31T17:11:10.447Z,22.90
2022-08-31T17:14:45.799Z,22.80
2022-08-31T17:18:16.026Z,22.80
2022-08-31T17:22:18.135Z,22.60
2022-08-31T17:41:46.293Z,22.30
2022-08-31T17:47:55.081Z,21.90
2022-08-31T17:59:51.874Z,21.50
2022-08-31T18:03:04.324Z,21.30
2022-08-31T18:06:11.050Z,21.30
2022-08-31T18:18:01.504Z,21.10
2022-08-31T18:21:19.154Z,21.00
2022-08-31T18:25:39.281Z,20.80
2022-08-31T18:29:28.152Z,20.80
2022-08-31T18:32:46.807Z,20.80
2022-08-31T19:17:22.230Z,20.20
2022-08-31T19:20:53.829Z,20.10
2022-08-31T19:28:12.187Z,20.00
2022-08-31T19:35:32.801Z,20.00
2022-08-31T19:38:32.481Z,19.80
2022-08-31T19:41:28.051Z,19.70
2022-08-31T19:44:24.449Z,19.60
2022-08-31T19:48:13.126Z,19.70
2022-08-31T19:51:29.660Z,19.90
2022-08-31T19:54:56.426Z,19.80
2022-08-31T19:58:06.559Z,19.70
2022-08-31T20:01:31.403Z,19.70
2022-08-31T20:04:54.098Z,19.70
2022-08-31T20:11:30.682Z,19.50
2022-08-31T20:14:49.860Z,19.50
2022-08-31T20:21:31.128Z,19.50
2022-08-31T20:24:25.415Z,19.40
2022-08-31T20:27:16.493Z,19.40
2022-08-31T20:30:07.149Z,19.30
2022-08-31T20:32:54.307Z,19.40
2022-08-31T20:35:42.612Z,19.20
2022-08-31T20:38:37.383Z,19.20
2022-08-31T20:41:36.975Z,19.00
2022-08-31T20:44:33.749Z,19.10
2022-08-31T20:47:45.115Z,19.10
2022-08-31T20:50:36.202Z,19.10
2022-08-31T20:53:43.149Z,19.00
2022-08-31T20:56:33.628Z,19.10
2022-08-31T20:59:35.268Z,19.00
2022-08-31T21:02:27.253Z,19.00
2022-08-31T21:05:37.388Z,18.90
2022-08-31T21:08:34.488Z,18.90
2022-08-31T21:11:28.387Z,18.90
2022-08-31T21:14:20.827Z,19.00
2022-08-31T21:17:08.240Z,18.90
2022-08-31T21:20:01.698Z,18.70
2022-08-31T21:22:49.039Z,18.70
2022-08-31T21:25:47.008Z,18.80
2022-08-31T21:28:38.569Z,18.70
2022-08-31T21:31:28.598Z,18.60
2022-08-31T21:34:18.740Z,18.50
2022-08-31T21:37:08.803Z,18.70
2022-08-31T21:39:58.001Z,18.70
2022-08-31T21:42:45.692Z,18.70
2022-08-31T21:45:33.915Z,18.70
2022-08-31T21:48:25.825Z,18.60
2022-08-31T21:51:20.806Z,18.40
2022-08-31T21:54:11.867Z,18.40
2022-08-31T21:57:03.120Z,18.40
2022-08-31T21:59:52.056Z,18.40
2022-08-31T22:02:47.256Z,18.40
2022-08-31T22:05:43.779Z,18.30
2022-08-31T22:08:32.343Z,18.20
2022-08-31T22:11:30.936Z,18.30
2022-08-31T22:14:25.971Z,18.30
2022-08-31T22:17:16.871Z,18.20
2022-08-31T22:20:05.642Z,18.30
2022-08-31T22:22:53.672Z,18.30
2022-08-31T22:25:46.794Z,18.20
2022-08-31T22:28:34.942Z,18.20
2022-08-31T22:31:28.737Z,18.10
2022-08-31T22:34:18.178Z,18.20
2022-08-31T22:37:07.293Z,18.10
